createdAt,value
2022-08-19T00:01:53.207Z,91.24
2022-08-19T00:04:24.385Z,91.00
2022-08-19T00:06:54.416Z,93.50
2022-08-19T00:09:24.505Z,89.47
2022-08-19T00:11:53.870Z,93.70
2022-08-19T00:14:22.872Z,93.55
2022-08-19T00:16:52.502Z,93.79
2022-08-19T00:19:20.676Z,94.35
2022-08-19T00:21:48.744Z,93.87
2022-08-19T00:24:18.305Z,88.80
2022-08-19T00:26:47.570Z,87.36
2022-08-19T00:29:18.132Z,88.75
2022-08-19T00:31:46.606Z,91.60
2022-08-19T00:34:16.403Z,92.79
2022-08-19T00:36:44.987Z,92.75
2022-08-19T00:39:14.085Z,93.73
2022-08-19T00:41:44.123Z,88.04
2022-08-19T00:44:15.691Z,89.61
2022-08-19T00:46:55.289Z,90.70
2022-08-19T00:49:30.070Z,89.54
2022-08-19T00:52:02.741Z,87.29
2022-08-19T00:54:32.474Z,86.99
2022-08-19T00:57:03.916Z,87.65
2022-08-19T00:59:56.225Z,86.21
2022-08-19T01:02:20.199Z,86.54
2022-08-19T01:04:49.036Z,86.69
2022-08-19T01:07:19.676Z,86.02
2022-08-19T01:09:48.775Z,86.37
2022-08-19T01:12:19.640Z,88.22
2022-08-19T01:14:49.781Z,88.51
2022-08-19T01:17:18.684Z,91.82
2022-08-19T01:19:48.731Z,92.43
2022-08-19T01:22:28.662Z,89.50
2022-08-19T01:25:02.542Z,91.42
2022-08-19T01:27:43.849Z,90.60
2022-08-19T01:30:15.206Z,91.63
2022-08-19T01:32:44.197Z,89.52
2022-08-19T01:35:14.198Z,92.04
2022-08-19T01:37:50.683Z,89.97
2022-08-19T01:40:22.245Z,90.43
2022-08-19T01:42:50.635Z,89.99
2022-08-19T01:45:18.984Z,92.04
2022-08-19T01:48:01.296Z,94.48
2022-08-19T01:50:30.875Z,95.76
2022-08-19T01:53:02.279Z,93.08
2022-08-19T01:55:41.052Z,91.81
2022-08-19T01:58:13.429Z,93.89
2022-08-19T02:00:42.121Z,98.16
2022-08-19T02:03:12.157Z,98.04
2022-08-19T02:05:40.678Z,96.39
2022-08-19T02:08:09.365Z,98.94
2022-08-19T02:10:41.498Z,96.95
2022-08-19T02:13:09.447Z,95.86
2022-08-19T02:15:37.398Z,98.84
2022-08-19T02:18:06.262Z,99.92
2022-08-19T02:20:34.864Z,100.00
2022-08-19T02:23:02.789Z,100.00
2022-08-19T02:25:30.709Z,100.00
2022-08-19T02:28:00.035Z,100.00
2022-08-19T02:30:28.864Z,100.00
2022-08-19T02:32:56.886Z,100.00
2022-08-19T02:35:24.890Z,100.00
2022-08-19T02:38:12.890Z,98.34
2022-08-19T02:40:40.789Z,100.00
2022-08-19T02:43:11.071Z,100.00
2022-08-19T02:45:41.622Z,100.00
2022-08-19T02:48:14.889Z,100.00
2022-08-19T02:50:53.797Z,100.00
2022-08-19T02:53:23.038Z,99.85
2022-08-19T02:55:51.794Z,96.93
2022-08-19T02:58:23.992Z,95.83
2022-08-19T03:00:55.027Z,95.13
2022-08-19T03:03:23.211Z,95.99
2022-08-19T03:05:56.524Z,94.07
2022-08-19T03:08:26.812Z,92.38
2022-08-19T03:10:55.071Z,94.10
2022-08-19T03:13:25.281Z,97.09
2022-08-19T03:15:53.294Z,96.77
2022-08-19T03:18:23.334Z,98.11
2022-08-19T03:20:55.455Z,96.99
2022-08-19T03:23:23.762Z,96.26
2022-08-19T03:26:03.934Z,96.55
2022-08-19T03:28:47.714Z,100.00
2022-08-19T03:31:43.455Z,97.76
2022-08-19T03:34:13.177Z,95.31
2022-08-19T03:36:41.781Z,94.98
2022-08-19T03:39:10.419Z,95.58
2022-08-19T03:41:44.578Z,97.31
2022-08-19T03:44:17.860Z,100.00
2022-08-19T03:46:47.952Z,100.00
2022-08-19T03:49:18.349Z,99.67
2022-08-19T03:51:48.667Z,97.85
2022-08-19T03:54:18.236Z,98.01
2022-08-19T03:56:47.946Z,100.00
2022-08-19T03:59:19.791Z,97.08
2022-08-19T04:01:48.044Z,100.00
2022-08-19T04:04:15.958Z,99.92
2022-08-19T04:06:48.178Z,100.00
2022-08-19T04:09:16.513Z,100.00
2022-08-19T04:11:47.583Z,100.00
2022-08-19T04:14:20.002Z,100.00
2022-08-19T04:16:49.047Z,100.00
2022-08-19T04:19:18.760Z,97.71
2022-08-19T04:21:48.797Z,98.80
2022-08-19T04:24:17.220Z,100.00
2022-08-19T04:26:45.544Z,98.82
2022-08-19T04:29:15.829Z,100.00
2022-08-19T04:31:46.530Z,97.61
2022-08-19T04:34:17.128Z,99.22
2022-08-19T04:36:46.597Z,97.59
2022-08-19T04:39:17.367Z,98.29
2022-08-19T04:42:02.952Z,95.59
2022-08-19T04:44:33.325Z,95.02
2022-08-19T04:47:11.024Z,93.26
2022-08-19T04:49:40.093Z,94.96
2022-08-19T04:52:09.404Z,96.17
2022-08-19T04:54:39.353Z,95.49
2022-08-19T04:57:10.607Z,95.66
2022-08-19T04:59:39.555Z,95.55
2022-08-19T05:02:09.809Z,94.28
2022-08-19T05:04:40.168Z,97.43
2022-08-19T05:07:08.957Z,96.24
2022-08-19T05:09:56.625Z,99.81
2022-08-19T05:12:29.383Z,96.99
2022-08-19T05:14:58.754Z,95.03
2022-08-19T05:17:32.415Z,94.31
2022-08-19T05:20:22.824Z,92.38
2022-08-19T05:22:50.911Z,96.00
2022-08-19T05:25:21.452Z,95.02
2022-08-19T05:27:49.844Z,92.49
2022-08-19T05:30:18.906Z,93.73
2022-08-19T05:33:03.549Z,94.26
2022-08-19T05:35:34.578Z,94.18
2022-08-19T05:38:02.810Z,96.56
2022-08-19T05:40:30.798Z,94.80
2022-08-19T05:42:58.746Z,95.04
2022-08-19T05:45:26.665Z,94.86
2022-08-19T05:47:55.184Z,94.03
2022-08-19T05:50:24.527Z,95.10
2022-08-19T05:52:52.542Z,92.84
2022-08-19T05:55:21.149Z,93.10
2022-08-19T05:57:49.129Z,92.83
2022-08-19T06:00:21.412Z,92.90
2022-08-19T06:02:52.892Z,91.93
2022-08-19T06:05:21.222Z,89.69
2022-08-19T06:07:50.585Z,91.29
2022-08-19T06:10:18.552Z,89.02
2022-08-19T06:12:46.502Z,89.97
2022-08-19T06:15:15.641Z,89.06
2022-08-19T06:17:45.205Z,91.62
2022-08-19T06:20:16.233Z,90.58
2022-08-19T06:22:46.431Z,90.80
2022-08-19T06:25:18.015Z,89.56
2022-08-19T06:28:13.419Z,89.32
2022-08-19T06:30:34.324Z,90.01
2022-08-19T06:33:02.248Z,86.58
2022-08-19T06:35:30.364Z,86.68
2022-08-19T06:37:58.496Z,89.05
2022-08-19T06:40:28.594Z,88.94
2022-08-19T06:42:57.255Z,87.66
2022-08-19T06:45:34.428Z,87.92
2022-08-19T06:48:04.057Z,84.96
2022-08-19T06:50:31.934Z,87.88
2022-08-19T06:52:59.836Z,87.55
2022-08-19T06:55:33.792Z,87.05
2022-08-19T06:58:04.642Z,87.10
2022-08-19T07:00:32.773Z,84.91
2022-08-19T07:03:06.132Z,84.03
2022-08-19T07:05:40.884Z,89.06
2022-08-19T07:08:14.230Z,90.48
2022-08-19T07:10:46.714Z,88.39
2022-08-19T07:13:14.930Z,85.49
2022-08-19T07:15:43.400Z,84.86
2022-08-19T07:18:11.682Z,84.33
2022-08-19T07:20:40.436Z,85.04
2022-08-19T07:23:15.879Z,85.93
2022-08-19T07:25:52.897Z,84.80
2022-08-19T07:28:24.437Z,82.36
2022-08-19T07:30:53.438Z,83.71
2022-08-19T07:33:21.672Z,84.07
2022-08-19T07:35:50.770Z,83.00
2022-08-19T07:38:19.118Z,83.05
2022-08-19T07:40:48.420Z,83.62
2022-08-19T07:43:17.925Z,81.50
2022-08-19T07:45:47.930Z,84.00
2022-08-19T07:48:16.447Z,84.71
2022-08-19T07:50:44.527Z,83.86
2022-08-19T07:53:12.884Z,83.90
2022-08-19T07:55:43.836Z,84.21
2022-08-19T07:58:15.646Z,86.62
2022-08-19T08:00:44.495Z,81.36
2022-08-19T08:03:12.778Z,81.15
2022-08-19T08:05:57.959Z,82.40
2022-08-19T08:08:44.189Z,86.29
2022-08-19T08:11:16.728Z,89.74
2022-08-19T08:13:46.923Z,89.65
2022-08-19T08:16:31.029Z,86.82
2022-08-19T08:18:59.187Z,89.00
2022-08-19T08:21:27.245Z,87.26
2022-08-19T08:23:56.686Z,86.54
2022-08-19T08:26:25.977Z,88.73
2022-08-19T08:28:55.672Z,87.86
2022-08-19T08:31:24.445Z,88.33
2022-08-19T08:33:52.331Z,87.51
2022-08-19T08:36:20.300Z,90.01
2022-08-19T08:38:49.098Z,88.83
2022-08-19T08:41:24.455Z,87.95
2022-08-19T08:43:55.155Z,88.11
2022-08-19T08:46:31.014Z,87.35
2022-08-19T08:49:04.622Z,90.19
2022-08-19T08:51:35.729Z,85.98
2022-08-19T08:54:09.907Z,87.83
2022-08-19T08:56:40.250Z,89.36
2022-08-19T08:59:14.816Z,89.72
2022-08-19T09:01:42.873Z,88.47
2022-08-19T09:04:14.099Z,88.34
2022-08-19T09:06:52.745Z,88.88
2022-08-19T09:09:29.442Z,86.22
2022-08-19T09:12:07.756Z,87.44
2022-08-19T09:14:50.801Z,87.15
2022-08-19T09:17:21.960Z,84.37
2022-08-19T09:19:54.950Z,85.74
2022-08-19T09:22:25.704Z,85.97
2022-08-19T09:24:54.434Z,85.02
2022-08-19T09:27:42.069Z,84.33
2022-08-19T09:30:18.107Z,82.80
2022-08-19T09:32:46.525Z,82.13
2022-08-19T09:35:15.378Z,85.26
2022-08-19T09:37:44.361Z,83.17
2022-08-19T09:40:13.835Z,84.74
2022-08-19T09:42:49.935Z,84.03
2022-08-19T09:45:22.977Z,84.61
2022-08-19T09:47:54.145Z,82.07
2022-08-19T09:50:24.647Z,82.60
2022-08-19T09:52:57.047Z,82.74
2022-08-19T09:55:31.466Z,83.00
2022-08-19T09:58:02.012Z,81.96
2022-08-19T10:00:32.735Z,82.80
2022-08-19T10:03:01.159Z,84.83
2022-08-19T10:05:48.487Z,82.40
2022-08-19T10:08:17.660Z,83.14
2022-08-19T10:10:47.035Z,83.91
2022-08-19T10:13:16.861Z,82.17
2022-08-19T10:15:47.439Z,81.23
2022-08-19T10:18:18.715Z,82.25
2022-08-19T10:20:51.295Z,81.02
2022-08-19T10:23:20.704Z,80.03
2022-08-19T10:25:49.781Z,81.48
2022-08-19T10:28:19.138Z,81.10
2022-08-19T10:30:49.447Z,81.09
2022-08-19T10:33:38.175Z,81.50
2022-08-19T10:36:07.785Z,83.27
2022-08-19T10:38:35.948Z,83.15
2022-08-19T10:41:13.189Z,83.75
2022-08-19T10:43:41.710Z,84.46
2022-08-19T10:46:16.691Z,84.35
2022-08-19T10:48:46.380Z,84.42
2022-08-19T10:51:31.587Z,84.60
2022-08-19T10:54:00.116Z,85.00
2022-08-19T10:56:46.302Z,84.26
2022-08-19T10:59:15.045Z,84.38
2022-08-19T11:01:46.125Z,84.78
2022-08-19T11:04:18.314Z,83.89
2022-08-19T11:06:48.283Z,84.25
2022-08-19T11:09:17.607Z,82.61
2022-08-19T11:11:46.097Z,82.07
2022-08-19T11:14:16.807Z,84.00
2022-08-19T11:16:47.339Z,83.55
2022-08-19T11:19:18.006Z,83.86
2022-08-19T11:21:48.421Z,83.83
2022-08-19T11:24:21.182Z,83.33
2022-08-19T11:26:50.827Z,82.85
2022-08-19T11:29:20.781Z,80.23
2022-08-19T11:31:51.464Z,81.61
2022-08-19T11:34:22.212Z,81.74
2022-08-19T11:36:51.703Z,82.03
2022-08-19T11:39:23.461Z,82.76
2022-08-19T11:41:51.572Z,82.74
2022-08-19T11:44:19.652Z,82.63
2022-08-19T11:46:48.492Z,82.57
2022-08-19T11:49:20.721Z,81.29
2022-08-19T11:51:49.349Z,83.19
2022-08-19T11:54:18.119Z,82.42
2022-08-19T11:56:48.717Z,82.26
2022-08-19T11:59:16.937Z,82.81
2022-08-19T12:01:44.937Z,82.67
2022-08-19T12:04:13.411Z,83.14
2022-08-19T12:06:43.290Z,83.10
2022-08-19T12:09:12.699Z,83.35
2022-08-19T12:11:41.493Z,83.78
2022-08-19T12:14:14.600Z,83.41
2022-08-19T12:16:49.101Z,81.65
2022-08-19T12:19:22.402Z,81.49
2022-08-19T12:21:53.968Z,80.53
2022-08-19T12:24:24.312Z,80.47
2022-08-19T12:26:53.978Z,79.44
2022-08-19T12:29:23.907Z,77.40
2022-08-19T12:31:52.173Z,79.10
2022-08-19T12:34:21.029Z,80.35
2022-08-19T12:36:50.326Z,78.35
2022-08-19T12:39:19.808Z,78.72
2022-08-19T12:41:54.795Z,77.41
2022-08-19T12:44:28.827Z,76.11
2022-08-19T12:47:00.229Z,73.90
2022-08-19T12:49:52.112Z,72.93
2022-08-19T12:52:22.996Z,72.66
2022-08-19T12:54:53.807Z,72.18
2022-08-19T12:57:23.734Z,73.01
2022-08-19T13:00:01.115Z,72.48
2022-08-19T13:02:29.273Z,73.13
2022-08-19T13:04:57.790Z,70.76
2022-08-19T13:07:25.689Z,70.13
2022-08-19T13:09:54.987Z,68.08
2022-08-19T13:12:25.270Z,71.56
2022-08-19T13:14:53.360Z,72.47
2022-08-19T13:17:21.816Z,73.30
2022-08-19T13:19:49.899Z,72.26
2022-08-19T13:22:17.908Z,69.59
2022-08-19T13:24:47.398Z,71.29
2022-08-19T13:27:17.347Z,73.22
2022-08-19T13:30:02.878Z,73.32
2022-08-19T13:32:49.078Z,73.59
2022-08-19T13:35:17.599Z,74.84
2022-08-19T13:37:46.478Z,72.88
2022-08-19T13:40:19.381Z,75.38
2022-08-19T13:42:51.869Z,74.22
2022-08-19T13:45:23.356Z,73.47
2022-08-19T13:47:58.438Z,73.77
2022-08-19T13:50:29.685Z,73.33
2022-08-19T13:52:58.343Z,73.29
2022-08-19T13:55:27.706Z,73.99
2022-08-19T13:57:58.908Z,72.91
2022-08-19T14:00:29.326Z,72.60
2022-08-19T14:02:59.051Z,72.71
2022-08-19T14:05:29.641Z,74.96
2022-08-19T14:07:58.481Z,74.15
2022-08-19T14:10:27.098Z,75.67
2022-08-19T14:12:59.155Z,74.69
2022-08-19T14:15:28.230Z,74.24
2022-08-19T14:17:56.905Z,74.33
2022-08-19T14:20:26.020Z,74.26
2022-08-19T14:22:54.796Z,72.50
2022-08-19T14:25:24.935Z,73.27
2022-08-19T14:27:53.511Z,72.80
2022-08-19T14:30:26.441Z,74.14
2022-08-19T14:32:55.056Z,71.58
2022-08-19T14:35:23.896Z,73.43
2022-08-19T14:37:54.838Z,73.38
2022-08-19T14:40:26.769Z,73.06
2022-08-19T14:42:56.702Z,74.01
2022-08-19T14:45:26.095Z,73.23
2022-08-19T14:47:54.365Z,73.56
2022-08-19T14:50:24.715Z,74.89
2022-08-19T14:53:00.467Z,75.57
2022-08-19T14:55:28.440Z,75.70
2022-08-19T14:57:56.402Z,75.92
2022-08-19T15:00:27.934Z,75.42
2022-08-19T15:02:56.247Z,73.82
2022-08-19T15:05:24.444Z,73.59
2022-08-19T15:07:52.427Z,73.75
2022-08-19T15:10:20.312Z,73.64
2022-08-19T15:12:51.755Z,74.73
2022-08-19T15:15:20.755Z,74.96
2022-08-19T15:17:50.453Z,75.09
2022-08-19T15:20:22.071Z,74.78
2022-08-19T15:22:50.081Z,75.43
2022-08-19T15:25:21.235Z,74.47
2022-08-19T15:27:51.101Z,75.44
2022-08-19T15:30:23.062Z,75.24
2022-08-19T15:32:55.621Z,77.13
2022-08-19T15:35:24.641Z,76.33
2022-08-19T15:37:53.514Z,74.49
2022-08-19T15:40:22.873Z,76.37
2022-08-19T15:42:51.598Z,74.06
2022-08-19T15:45:20.829Z,74.52
2022-08-19T15:47:49.289Z,75.38
2022-08-19T15:50:22.197Z,76.21
2022-08-19T15:52:52.183Z,76.71
2022-08-19T15:55:34.084Z,78.34
2022-08-19T15:58:28.425Z,77.75
2022-08-19T16:01:15.560Z,78.96
2022-08-19T16:04:01.383Z,79.07
2022-08-19T16:06:31.490Z,78.99
2022-08-19T16:09:01.871Z,81.45
2022-08-19T16:11:32.432Z,81.14
2022-08-19T16:14:01.538Z,79.33
2022-08-19T16:16:33.739Z,80.83
2022-08-19T16:19:04.075Z,80.70
2022-08-19T16:21:34.351Z,81.66
2022-08-19T16:24:06.581Z,81.41
2022-08-19T16:26:35.199Z,82.46
2022-08-19T16:29:09.096Z,82.12
2022-08-19T16:31:41.433Z,83.38
2022-08-19T16:34:09.482Z,83.77
2022-08-19T16:36:42.033Z,81.81
2022-08-19T16:39:11.722Z,82.16
2022-08-19T16:41:40.437Z,83.71
2022-08-19T16:44:10.284Z,83.05
2022-08-19T16:46:41.558Z,82.39
2022-08-19T16:49:12.009Z,80.67
2022-08-19T16:51:42.472Z,81.96
2022-08-19T16:54:10.467Z,82.87
2022-08-19T16:56:38.433Z,83.13
2022-08-19T16:59:06.612Z,83.30
2022-08-19T17:01:34.536Z,84.31
2022-08-19T17:04:02.495Z,84.20
2022-08-19T17:06:32.052Z,83.80
2022-08-19T17:09:02.996Z,84.50
2022-08-19T17:11:32.841Z,85.23
2022-08-19T17:14:01.854Z,86.54
2022-08-19T17:16:32.675Z,85.16
2022-08-19T17:19:03.375Z,86.75
2022-08-19T17:21:33.315Z,86.49
2022-08-19T17:24:04.597Z,87.55
2022-08-19T17:26:33.127Z,84.92
2022-08-19T17:29:01.439Z,86.19
2022-08-19T17:31:31.324Z,84.96
2022-08-19T17:33:59.939Z,86.26
2022-08-19T17:36:29.621Z,85.01
2022-08-19T17:38:59.493Z,85.58
2022-08-19T17:41:33.722Z,85.19
2022-08-19T17:44:02.273Z,84.79
2022-08-19T17:46:30.449Z,85.03
2022-08-19T17:48:59.037Z,84.46
2022-08-19T17:51:42.119Z,83.91
2022-08-19T17:54:12.851Z,83.30
2022-08-19T17:56:42.833Z,84.20
2022-08-19T17:59:13.725Z,83.71
2022-08-19T18:01:51.882Z,83.23
2022-08-19T18:04:22.941Z,83.88
2022-08-19T18:06:53.077Z,84.23
2022-08-19T18:09:23.812Z,83.98
2022-08-19T18:11:55.458Z,83.76
2022-08-19T18:14:32.936Z,83.47
2022-08-19T18:17:01.665Z,83.98
2022-08-19T18:19:41.626Z,84.90
2022-08-19T18:22:11.799Z,84.70
2022-08-19T18:24:40.587Z,83.36
2022-08-19T18:27:10.118Z,85.13
2022-08-19T18:29:40.104Z,84.97
2022-08-19T18:32:12.603Z,84.88
2022-08-19T18:34:41.551Z,87.07
2022-08-19T18:37:10.543Z,87.05
2022-08-19T18:39:56.345Z,88.37
2022-08-19T18:42:43.354Z,87.09
2022-08-19T18:45:29.079Z,88.81
2022-08-19T18:48:26.346Z,87.91
2022-08-19T18:50:57.638Z,89.24
2022-08-19T18:53:26.283Z,88.04
2022-08-19T18:55:55.114Z,88.24
2022-08-19T18:58:26.548Z,87.41
2022-08-19T19:00:57.320Z,89.38
2022-08-19T19:03:26.232Z,88.67
2022-08-19T19:05:54.545Z,88.15
2022-08-19T19:08:26.696Z,86.98
2022-08-19T19:10:56.005Z,89.25
2022-08-19T19:13:26.760Z,88.54
2022-08-19T19:15:55.484Z,89.76
2022-08-19T19:18:23.465Z,89.30
2022-08-19T19:20:51.319Z,89.07
2022-08-19T19:23:20.570Z,89.65
2022-08-19T19:25:50.256Z,90.16
2022-08-19T19:28:25.428Z,87.81
2022-08-19T19:30:58.435Z,87.86
2022-08-19T19:33:26.778Z,88.11
2022-08-19T19:35:54.823Z,88.78
2022-08-19T19:38:22.777Z,87.52
2022-08-19T19:40:50.711Z,88.36
2022-08-19T19:43:19.199Z,87.33
2022-08-19T19:45:48.979Z,87.11
2022-08-19T19:48:18.524Z,86.73
2022-08-19T19:50:53.983Z,88.44
2022-08-19T19:53:24.198Z,86.98
2022-08-19T19:55:57.584Z,87.09
2022-08-19T19:58:28.490Z,87.51
2022-08-19T20:00:57.273Z,89.83
2022-08-19T20:03:26.813Z,88.18
2022-08-19T20:05:54.910Z,88.38
2022-08-19T20:08:40.293Z,88.21
2022-08-19T20:11:08.586Z,88.33
2022-08-19T20:13:39.572Z,88.22
2022-08-19T20:16:08.050Z,87.65
2022-08-19T20:18:40.163Z,88.79
2022-08-19T20:21:08.161Z,87.92
2022-08-19T20:23:36.297Z,88.89
2022-08-19T20:26:06.793Z,88.20
2022-08-19T20:28:40.232Z,87.98
2022-08-19T20:31:15.029Z,89.15
2022-08-19T20:33:44.521Z,89.24
2022-08-19T20:36:12.477Z,89.35
2022-08-19T20:38:40.411Z,89.76
2022-08-19T20:41:09.533Z,89.96
2022-08-19T20:43:37.804Z,87.85
2022-08-19T20:46:06.035Z,89.22
2022-08-19T20:48:36.182Z,89.42
2022-08-19T20:51:05.888Z,89.41
2022-08-19T20:53:35.044Z,91.49
2022-08-19T20:56:03.096Z,91.38
2022-08-19T20:58:31.829Z,90.13
2022-08-19T21:01:01.343Z,90.19
2022-08-19T21:03:32.312Z,90.17
2022-08-19T21:06:00.662Z,91.04
2022-08-19T21:08:30.050Z,90.20
2022-08-19T21:10:58.459Z,92.85
2022-08-19T21:13:26.893Z,91.65
2022-08-19T21:15:55.129Z,91.10
2022-08-19T21:18:25.551Z,91.47
2022-08-19T21:20:54.567Z,91.46
2022-08-19T21:23:24.726Z,91.26
2022-08-19T21:25:55.938Z,89.76
2022-08-19T21:28:34.513Z,91.29
2022-08-19T21:31:06.254Z,91.49
2022-08-19T21:33:34.260Z,90.00
2022-08-19T21:36:03.019Z,90.09
2022-08-19T21:38:31.239Z,89.14
2022-08-19T21:41:05.847Z,88.35
2022-08-19T21:43:34.823Z,87.17
2022-08-19T21:46:02.913Z,88.15
2022-08-19T21:48:30.907Z,89.42
2022-08-19T21:50:58.828Z,89.60
2022-08-19T21:53:34.083Z,88.53
2022-08-19T21:56:04.404Z,88.54
2022-08-19T21:58:33.528Z,87.94
2022-08-19T22:01:06.057Z,89.28
2022-08-19T22:03:34.636Z,87.97
2022-08-19T22:06:02.815Z,88.47
2022-08-19T22:08:31.626Z,89.89
2022-08-19T22:11:00.221Z,89.17
2022-08-19T22:13:33.735Z,87.70
2022-08-19T22:16:03.925Z,87.76
2022-08-19T22:18:31.932Z,88.79
2022-08-19T22:21:00.231Z,89.23
2022-08-19T22:23:28.176Z,89.22
2022-08-19T22:25:56.080Z,89.82
2022-08-19T22:28:27.936Z,89.85
2022-08-19T22:30:57.507Z,90.91
2022-08-19T22:33:27.603Z,88.81
2022-08-19T22:35:55.777Z,88.34
2022-08-19T22:38:25.254Z,88.15
2022-08-19T22:40:54.252Z,89.86
2022-08-19T22:43:26.131Z,87.46
2022-08-19T22:45:58.057Z,87.88
2022-08-19T22:48:28.938Z,86.74
2022-08-19T22:51:15.798Z,89.20
2022-08-19T22:53:46.535Z,88.75
2022-08-19T22:56:18.005Z,88.70
2022-08-19T22:58:49.990Z,89.46
2022-08-19T23:01:30.107Z,88.71
2022-08-19T23:03:58.953Z,88.58
2022-08-19T23:06:33.187Z,89.89
2022-08-19T23:09:04.819Z,89.32
2022-08-19T23:11:35.706Z,89.04
2022-08-19T23:14:09.548Z,90.00
2022-08-19T23:16:39.391Z,88.40
2022-08-19T23:19:09.859Z,88.52
2022-08-19T23:21:38.793Z,87.13
2022-08-19T23:24:07.382Z,87.25
2022-08-19T23:26:36.203Z,89.67
2022-08-19T23:29:22.803Z,87.99
2022-08-19T23:31:52.350Z,89.88
2022-08-19T23:34:20.262Z,87.46
2022-08-19T23:36:48.418Z,90.53
2022-08-19T23:39:16.417Z,89.41
2022-08-19T23:41:44.640Z,89.62
2022-08-19T23:44:14.726Z,89.15
2022-08-19T23:46:54.561Z,87.26
2022-08-19T23:49:25.812Z,87.87
2022-08-19T23:51:55.608Z,88.92
2022-08-19T23:54:32.042Z,90.78
2022-08-19T23:57:13.956Z,90.83
2022-08-19T23:59:42.540Z,89.75
